sensor_id;sensor_type;location;lat;lon;timestamp;temperature;humidity
37544;DHT22;23385;52.038;20.322;2022-08-19T00:01:57;19.70;99.90
37544;DHT22;23385;52.038;20.322;2022-08-19T00:04:27;19.70;99.90
37544;DHT22;23385;52.038;20.322;2022-08-19T00:06:53;19.60;99.90
37544;DHT22;23385;52.038;20.322;2022-08-19T00:09:21;19.60;99.90
37544;DHT22;23385;52.038;20.322;2022-08-19T00:11:53;19.60;99.90
37544;DHT22;23385;52.038;20.322;2022-08-19T00:14:20;19.60;99.90
37544;DHT22;23385;52.038;20.322;2022-08-19T00:16:48;19.50;99.90
37544;DHT22;23385;52.038;20.322;2022-08-19T00:19:15;19.50;99.90
37544;DHT22;23385;52.038;20.322;2022-08-19T00:25:11;19.50;99.90
37544;DHT22;23385;52.038;20.322;2022-08-19T00:44:52;19.50;99.90
37544;DHT22;23385;52.038;20.322;2022-08-19T00:47:20;19.40;99.90
37544;DHT22;23385;52.038;20.322;2022-08-19T00:49:50;19.40;99.90
37544;DHT22;23385;52.038;20.322;2022-08-19T00:52:20;19.40;99.90
37544;DHT22;23385;52.038;20.322;2022-08-19T00:54:47;19.40;99.90
37544;DHT22;23385;52.038;20.322;2022-08-19T00:57:17;19.40;99.90
37544;DHT22;23385;52.038;20.322;2022-08-19T00:59:47;19.40;99.90
37544;DHT22;23385;52.038;20.322;2022-08-19T01:02:15;19.40;99.90
37544;DHT22;23385;52.038;20.322;2022-08-19T01:04:41;19.30;99.90
37544;DHT22;23385;52.038;20.322;2022-08-19T01:07:07;19.30;99.90
37544;DHT22;23385;52.038;20.322;2022-08-19T01:09:36;19.30;99.90
37544;DHT22;23385;52.038;20.322;2022-08-19T01:12:02;19.20;99.90
37544;DHT22;23385;52.038;20.322;2022-08-19T01:14:29;19.20;99.90
37544;DHT22;23385;52.038;20.322;2022-08-19T01:16:56;19.20;99.90
37544;DHT22;23385;52.038;20.322;2022-08-19T01:19:32;19.10;99.90
37544;DHT22;23385;52.038;20.322;2022-08-19T01:22:03;19.10;99.90
37544;DHT22;23385;52.038;20.322;2022-08-19T01:24:31;19.00;99.90
37544;DHT22;23385;52.038;20.322;2022-08-19T01:26:58;19.00;99.90
37544;DHT22;23385;52.038;20.322;2022-08-19T01:29:24;19.00;99.90
37544;DHT22;23385;52.038;20.322;2022-08-19T01:31:49;18.90;99.90
37544;DHT22;23385;52.038;20.322;2022-08-19T01:34:19;18.90;99.90
37544;DHT22;23385;52.038;20.322;2022-08-19T01:36:46;18.80;99.90
37544;DHT22;23385;52.038;20.322;2022-08-19T01:39:24;18.80;99.90
37544;DHT22;23385;52.038;20.322;2022-08-19T01:41:51;18.80;99.90
37544;DHT22;23385;52.038;20.322;2022-08-19T01:44:20;18.80;99.90
37544;DHT22;23385;52.038;20.322;2022-08-19T01:47:07;18.70;99.90
37544;DHT22;23385;52.038;20.322;2022-08-19T01:49:35;18.70;99.90
37544;DHT22;23385;52.038;20.322;2022-08-19T01:52:03;18.80;99.90
37544;DHT22;23385;52.038;20.322;2022-08-19T01:54:29;18.70;99.90
37544;DHT22;23385;52.038;20.322;2022-08-19T01:57:06;18.70;99.90
37544;DHT22;23385;52.038;20.322;2022-08-19T01:59:33;18.70;99.90
37544;DHT22;23385;52.038;20.322;2022-08-19T02:02:02;18.60;99.90
37544;DHT22;23385;52.038;20.322;2022-08-19T02:04:29;18.60;99.90
37544;DHT22;23385;52.038;20.322;2022-08-19T02:09:58;18.60;99.90
37544;DHT22;23385;52.038;20.322;2022-08-19T02:12:24;18.50;99.90
37544;DHT22;23385;52.038;20.322;2022-08-19T03:12:17;18.30;99.90
37544;DHT22;23385;52.038;20.322;2022-08-19T03:14:44;18.30;99.90
37544;DHT22;23385;52.038;20.322;2022-08-19T03:17:12;18.30;99.90
37544;DHT22;23385;52.038;20.322;2022-08-19T03:19:38;18.30;99.90
37544;DHT22;23385;52.038;20.322;2022-08-19T03:22:03;18.30;99.90
37544;DHT22;23385;52.038;20.322;2022-08-19T03:24:30;18.20;99.90
37544;DHT22;23385;52.038;20.322;2022-08-19T03:26:57;18.20;99.90
37544;DHT22;23385;52.038;20.322;2022-08-19T03:29:25;18.20;99.90
37544;DHT22;23385;52.038;20.322;2022-08-19T03:31:51;18.20;99.90
37544;DHT22;23385;52.038;20.322;2022-08-19T03:34:25;18.20;99.90
37544;DHT22;23385;52.038;20.322;2022-08-19T03:36:53;18.30;99.90
37544;DHT22;23385;52.038;20.322;2022-08-19T03:39:20;18.30;99.90
37544;DHT22;23385;52.038;20.322;2022-08-19T03:41:47;18.30;99.90
37544;DHT22;23385;52.038;20.322;2022-08-19T03:44:19;18.30;99.90
37544;DHT22;23385;52.038;20.322;2022-08-19T03:46:48;18.30;99.90
37544;DHT22;23385;52.038;20.322;2022-08-19T03:49:15;18.30;99.90
37544;DHT22;23385;52.038;20.322;2022-08-19T03:51:42;18.30;99.90
37544;DHT22;23385;52.038;20.322;2022-08-19T03:54:11;18.30;99.90
37544;DHT22;23385;52.038;20.322;2022-08-19T03:56:40;18.30;99.90
37544;DHT22;23385;52.038;20.322;2022-08-19T03:59:10;18.30;99.90
37544;DHT22;23385;52.038;20.322;2022-08-19T04:01:36;18.30;99.90
37544;DHT22;23385;52.038;20.322;2022-08-19T04:04:03;18.40;99.90
37544;DHT22;23385;52.038;20.322;2022-08-19T04:06:31;18.50;99.90
37544;DHT22;23385;52.038;20.322;2022-08-19T04:08:59;18.40;99.90
37544;DHT22;23385;52.038;20.322;2022-08-19T04:11:28;18.50;99.90
37544;DHT22;23385;52.038;20.322;2022-08-19T04:13:55;18.60;99.90
37544;DHT22;23385;52.038;20.322;2022-08-19T04:16:32;18.70;99.90
37544;DHT22;23385;52.038;20.322;2022-08-19T04:19:00;18.80;99.90
37544;DHT22;23385;52.038;20.322;2022-08-19T04:21:27;18.90;99.90
37544;DHT22;23385;52.038;20.322;2022-08-19T04:23:55;19.10;99.90
37544;DHT22;23385;52.038;20.322;2022-08-19T04:26:25;19.20;99.90
37544;DHT22;23385;52.038;20.322;2022-08-19T04:28:52;19.30;99.90
37544;DHT22;23385;52.038;20.322;2022-08-19T04:31:23;19.30;99.90
37544;DHT22;23385;52.038;20.322;2022-08-19T04:33:58;19.40;99.90
37544;DHT22;23385;52.038;20.322;2022-08-19T04:36:26;19.50;99.90
37544;DHT22;23385;52.038;20.322;2022-08-19T04:38:58;19.50;99.90
37544;DHT22;23385;52.038;20.322;2022-08-19T04:41:27;19.60;99.90
37544;DHT22;23385;52.038;20.322;2022-08-19T04:44:12;19.70;99.90
37544;DHT22;23385;52.038;20.322;2022-08-19T04:46:38;19.70;99.90
37544;DHT22;23385;52.038;20.322;2022-08-19T04:49:05;19.70;99.90
37544;DHT22;23385;52.038;20.322;2022-08-19T04:51:32;19.80;99.90
37544;DHT22;23385;52.038;20.322;2022-08-19T04:53:59;19.90;99.90
37544;DHT22;23385;52.038;20.322;2022-08-19T04:56:26;19.90;99.90
37544;DHT22;23385;52.038;20.322;2022-08-19T04:58:54;19.90;99.90
37544;DHT22;23385;52.038;20.322;2022-08-19T05:01:23;20.00;99.90
37544;DHT22;23385;52.038;20.322;2022-08-19T05:03:50;20.10;99.90
37544;DHT22;23385;52.038;20.322;2022-08-19T05:06:17;20.20;99.90
37544;DHT22;23385;52.038;20.322;2022-08-19T05:08:44;20.40;99.90
37544;DHT22;23385;52.038;20.322;2022-08-19T05:13:40;20.60;99.90
37544;DHT22;23385;52.038;20.322;2022-08-19T05:16:06;20.70;99.90
37544;DHT22;23385;52.038;20.322;2022-08-19T05:21:25;20.90;99.90
37544;DHT22;23385;52.038;20.322;2022-08-19T05:24:10;21.00;99.90
37544;DHT22;23385;52.038;20.322;2022-08-19T05:26:41;21.10;99.90
37544;DHT22;23385;52.038;20.322;2022-08-19T05:29:09;21.30;99.90
37544;DHT22;23385;52.038;20.322;2022-08-19T05:31:36;21.40;99.90
37544;DHT22;23385;52.038;20.322;2022-08-19T05:34:04;21.50;99.90
37544;DHT22;23385;52.038;20.322;2022-08-19T05:36:38;21.70;99.90
37544;DHT22;23385;52.038;20.322;2022-08-19T05:39:06;21.80;99.90
37544;DHT22;23385;52.038;20.322;2022-08-19T05:41:32;21.90;99.90
37544;DHT22;23385;52.038;20.322;2022-08-19T05:44:02;22.10;99.90
37544;DHT22;23385;52.038;20.322;2022-08-19T05:46:28;22.20;99.90
37544;DHT22;23385;52.038;20.322;2022-08-19T05:48:55;22.40;99.90
37544;DHT22;23385;52.038;20.322;2022-08-19T05:51:22;22.60;99.90
37544;DHT22;23385;52.038;20.322;2022-08-19T05:53:49;22.80;99.90
37544;DHT22;23385;52.038;20.322;2022-08-19T05:56:16;23.00;99.90
37544;DHT22;23385;52.038;20.322;2022-08-19T05:58:44;23.20;99.90
37544;DHT22;23385;52.038;20.322;2022-08-19T06:01:12;23.50;99.90
37544;DHT22;23385;52.038;20.322;2022-08-19T06:03:39;23.60;99.90
37544;DHT22;23385;52.038;20.322;2022-08-19T06:06:06;23.80;99.90
37544;DHT22;23385;52.038;20.322;2022-08-19T06:08:33;23.90;99.90
37544;DHT22;23385;52.038;20.322;2022-08-19T06:11:20;24.00;99.90
37544;DHT22;23385;52.038;20.322;2022-08-19T06:13:49;24.10;99.90
37544;DHT22;23385;52.038;20.322;2022-08-19T06:16:21;24.30;99.90
37544;DHT22;23385;52.038;20.322;2022-08-19T06:18:55;24.50;99.90
37544;DHT22;23385;52.038;20.322;2022-08-19T06:21:25;24.70;99.90
37544;DHT22;23385;52.038;20.322;2022-08-19T06:23:54;24.90;99.90
37544;DHT22;23385;52.038;20.322;2022-08-19T06:26:20;25.10;99.90
37544;DHT22;23385;52.038;20.322;2022-08-19T06:28:47;25.30;99.90
37544;DHT22;23385;52.038;20.322;2022-08-19T06:31:15;25.50;99.90
37544;DHT22;23385;52.038;20.322;2022-08-19T06:33:42;25.60;99.90
37544;DHT22;23385;52.038;20.322;2022-08-19T06:36:20;25.70;99.90
37544;DHT22;23385;52.038;20.322;2022-08-19T06:38:46;25.80;99.90
37544;DHT22;23385;52.038;20.322;2022-08-19T06:41:12;26.00;99.90
37544;DHT22;23385;52.038;20.322;2022-08-19T06:43:38;26.10;99.90
37544;DHT22;23385;52.038;20.322;2022-08-19T06:46:13;26.20;99.90
37544;DHT22;23385;52.038;20.322;2022-08-19T06:48:39;26.20;99.90
37544;DHT22;23385;52.038;20.322;2022-08-19T06:51:05;26.40;99.90
37544;DHT22;23385;52.038;20.322;2022-08-19T06:53:32;26.50;99.90
37544;DHT22;23385;52.038;20.322;2022-08-19T06:55:58;26.70;99.90
37544;DHT22;23385;52.038;20.322;2022-08-19T06:58:25;26.90;99.90
37544;DHT22;23385;52.038;20.322;2022-08-19T07:00:51;27.00;99.90
37544;DHT22;23385;52.038;20.322;2022-08-19T07:03:17;27.10;99.90
37544;DHT22;23385;52.038;20.322;2022-08-19T07:05:43;27.20;99.90
37544;DHT22;23385;52.038;20.322;2022-08-19T07:08:09;27.30;99.90
37544;DHT22;23385;52.038;20.322;2022-08-19T07:10:35;27.50;99.90
37544;DHT22;23385;52.038;20.322;2022-08-19T07:13:02;27.60;99.90
37544;DHT22;23385;52.038;20.322;2022-08-19T07:15:29;27.80;99.90
37544;DHT22;23385;52.038;20.322;2022-08-19T07:17:55;27.90;99.90
37544;DHT22;23385;52.038;20.322;2022-08-19T07:20:21;27.90;99.90
37544;DHT22;23385;52.038;20.322;2022-08-19T07:22:46;28.00;99.90
37544;DHT22;23385;52.038;20.322;2022-08-19T07:25:13;28.10;99.90
37544;DHT22;23385;52.038;20.322;2022-08-19T07:27:39;28.10;99.90
37544;DHT22;23385;52.038;20.322;2022-08-19T07:30:06;28.20;99.90
37544;DHT22;23385;52.038;20.322;2022-08-19T07:32:32;28.20;99.90
37544;DHT22;23385;52.038;20.322;2022-08-19T07:34:58;28.30;99.90
37544;DHT22;23385;52.038;20.322;2022-08-19T07:37:25;28.50;99.90
37544;DHT22;23385;52.038;20.322;2022-08-19T07:39:54;28.60;99.90
37544;DHT22;23385;52.038;20.322;2022-08-19T07:42:20;28.70;99.90
37544;DHT22;23385;52.038;20.322;2022-08-19T07:44:46;28.80;99.90
37544;DHT22;23385;52.038;20.322;2022-08-19T07:47:12;28.90;99.90
37544;DHT22;23385;52.038;20.322;2022-08-19T07:49:40;29.00;99.90
37544;DHT22;23385;52.038;20.322;2022-08-19T07:52:09;29.10;99.90
37544;DHT22;23385;52.038;20.322;2022-08-19T07:54:38;29.00;99.90
37544;DHT22;23385;52.038;20.322;2022-08-19T07:57:05;29.00;99.90
37544;DHT22;23385;52.038;20.322;2022-08-19T07:59:31;29.10;99.90
37544;DHT22;23385;52.038;20.322;2022-08-19T08:01:57;29.20;99.90
37544;DHT22;23385;52.038;20.322;2022-08-19T08:04:26;29.30;99.90
37544;DHT22;23385;52.038;20.322;2022-08-19T08:07:11;29.40;99.90
37544;DHT22;23385;52.038;20.322;2022-08-19T08:09:56;29.40;99.90
37544;DHT22;23385;52.038;20.322;2022-08-19T08:12:26;29.40;99.90
37544;DHT22;23385;52.038;20.322;2022-08-19T08:14:56;29.40;99.90
37544;DHT22;23385;52.038;20.322;2022-08-19T08:17:24;29.40;99.90
37544;DHT22;23385;52.038;20.322;2022-08-19T08:19:50;29.40;99.90
37544;DHT22;23385;52.038;20.322;2022-08-19T08:22:19;29.40;99.90
37544;DHT22;23385;52.038;20.322;2022-08-19T08:25:15;29.60;99.90
37544;DHT22;23385;52.038;20.322;2022-08-19T08:27:43;29.80;99.90
37544;DHT22;23385;52.038;20.322;2022-08-19T08:30:18;30.10;99.90
37544;DHT22;23385;52.038;20.322;2022-08-19T08:32:44;30.20;99.90
37544;DHT22;23385;52.038;20.322;2022-08-19T08:35:13;30.10;99.90
37544;DHT22;23385;52.038;20.322;2022-08-19T08:37:40;30.20;99.90
37544;DHT22;23385;52.038;20.322;2022-08-19T08:40:17;30.10;99.90
37544;DHT22;23385;52.038;20.322;2022-08-19T08:42:58;30.30;99.90
37544;DHT22;23385;52.038;20.322;2022-08-19T08:45:28;30.50;99.90
37544;DHT22;23385;52.038;20.322;2022-08-19T08:47:57;30.70;99.90
37544;DHT22;23385;52.038;20.322;2022-08-19T08:50:33;30.60;99.90
37544;DHT22;23385;52.038;20.322;2022-08-19T08:53:04;30.70;99.90
37544;DHT22;23385;52.038;20.322;2022-08-19T08:55:31;30.70;99.90
37544;DHT22;23385;52.038;20.322;2022-08-19T08:58:07;30.70;99.90
37544;DHT22;23385;52.038;20.322;2022-08-19T09:00:41;30.80;99.90
37544;DHT22;23385;52.038;20.322;2022-08-19T09:03:22;30.90;99.90
37544;DHT22;23385;52.038;20.322;2022-08-19T09:05:56;30.90;99.90
37544;DHT22;23385;52.038;20.322;2022-08-19T09:08:37;30.90;99.90
37544;DHT22;23385;52.038;20.322;2022-08-19T09:11:08;30.70;99.90
37544;DHT22;23385;52.038;20.322;2022-08-19T09:16:24;31.00;99.90
37544;DHT22;23385;52.038;20.322;2022-08-19T09:19:06;30.90;99.90
37544;DHT22;23385;52.038;20.322;2022-08-19T09:21:33;31.00;99.90
37544;DHT22;23385;52.038;20.322;2022-08-19T09:24:00;31.20;99.90
37544;DHT22;23385;52.038;20.322;2022-08-19T09:26:27;31.30;99.90
37544;DHT22;23385;52.038;20.322;2022-08-19T09:28:53;31.40;99.90
37544;DHT22;23385;52.038;20.322;2022-08-19T09:31:23;31.40;99.90
37544;DHT22;23385;52.038;20.322;2022-08-19T09:33:50;31.60;99.90
37544;DHT22;23385;52.038;20.322;2022-08-19T09:36:17;32.00;99.90
37544;DHT22;23385;52.038;20.322;2022-08-19T09:38:44;32.10;99.90
37544;DHT22;23385;52.038;20.322;2022-08-19T09:41:13;32.30;99.90
37544;DHT22;23385;52.038;20.322;2022-08-19T09:43:40;32.40;99.90
37544;DHT22;23385;52.038;20.322;2022-08-19T09:46:07;32.40;99.90
37544;DHT22;23385;52.038;20.322;2022-08-19T09:48:35;32.30;99.90
37544;DHT22;23385;52.038;20.322;2022-08-19T09:51:12;32.30;99.90
37544;DHT22;23385;52.038;20.322;2022-08-19T09:53:44;32.30;99.90
37544;DHT22;23385;52.038;20.322;2022-08-19T09:56:11;32.30;99.90
37544;DHT22;23385;52.038;20.322;2022-08-19T09:58:39;32.40;99.90
37544;DHT22;23385;52.038;20.322;2022-08-19T10:01:06;32.50;99.90
37544;DHT22;23385;52.038;20.322;2022-08-19T10:03:34;32.60;99.90
37544;DHT22;23385;52.038;20.322;2022-08-19T10:06:01;32.60;99.90
37544;DHT22;23385;52.038;20.322;2022-08-19T10:08:31;32.70;99.90
37544;DHT22;23385;52.038;20.322;2022-08-19T10:10:58;32.70;99.90
37544;DHT22;23385;52.038;20.322;2022-08-19T10:13:28;32.70;99.90
37544;DHT22;23385;52.038;20.322;2022-08-19T10:16:01;32.70;99.90
37544;DHT22;23385;52.038;20.322;2022-08-19T10:18:27;33.00;99.90
37544;DHT22;23385;52.038;20.322;2022-08-19T10:21:35;33.20;99.90
37544;DHT22;23385;52.038;20.322;2022-08-19T10:23:58;33.20;99.90
37544;DHT22;23385;52.038;20.322;2022-08-19T10:26:30;33.10;99.90
37544;DHT22;23385;52.038;20.322;2022-08-19T10:28:57;33.10;99.90
37544;DHT22;23385;52.038;20.322;2022-08-19T10:31:30;33.00;99.90
37544;DHT22;23385;52.038;20.322;2022-08-19T10:33:57;32.70;99.90
37544;DHT22;23385;52.038;20.322;2022-08-19T10:36:27;32.80;99.90
37544;DHT22;23385;52.038;20.322;2022-08-19T10:38:55;32.80;99.90
37544;DHT22;23385;52.038;20.322;2022-08-19T10:41:36;32.90;99.90
37544;DHT22;23385;52.038;20.322;2022-08-19T10:44:05;33.20;99.90
37544;DHT22;23385;52.038;20.322;2022-08-19T10:46:34;33.30;99.90
37544;DHT22;23385;52.038;20.322;2022-08-19T10:49:01;33.60;99.90
37544;DHT22;23385;52.038;20.322;2022-08-19T10:51:28;33.80;99.90
37544;DHT22;23385;52.038;20.322;2022-08-19T10:54:12;33.80;99.90
37544;DHT22;23385;52.038;20.322;2022-08-19T10:56:38;34.00;99.90
37544;DHT22;23385;52.038;20.322;2022-08-19T10:59:29;33.90;99.90
37544;DHT22;23385;52.038;20.322;2022-08-19T11:02:00;33.60;99.90
37544;DHT22;23385;52.038;20.322;2022-08-19T11:04:26;33.70;99.90
37544;DHT22;23385;52.038;20.322;2022-08-19T11:06:52;33.60;99.90
37544;DHT22;23385;52.038;20.322;2022-08-19T11:09:20;33.80;99.90
37544;DHT22;23385;52.038;20.322;2022-08-19T11:11:47;33.80;99.90
37544;DHT22;23385;52.038;20.322;2022-08-19T11:14:15;33.90;99.90
37544;DHT22;23385;52.038;20.322;2022-08-19T11:16:44;33.70;98.80
37544;DHT22;23385;52.038;20.322;2022-08-19T11:19:12;33.70;99.30
37544;DHT22;23385;52.038;20.322;2022-08-19T11:21:42;33.80;99.90
37544;DHT22;23385;52.038;20.322;2022-08-19T11:24:19;34.00;99.90
37544;DHT22;23385;52.038;20.322;2022-08-19T11:26:46;34.20;99.90
37544;DHT22;23385;52.038;20.322;2022-08-19T11:29:15;34.20;99.90
37544;DHT22;23385;52.038;20.322;2022-08-19T11:31:44;34.20;98.10
37544;DHT22;23385;52.038;20.322;2022-08-19T11:34:14;34.40;99.40
37544;DHT22;23385;52.038;20.322;2022-08-19T11:36:43;34.20;98.60
37544;DHT22;23385;52.038;20.322;2022-08-19T11:39:12;34.30;98.30
37544;DHT22;23385;52.038;20.322;2022-08-19T11:41:38;34.20;96.60
37544;DHT22;23385;52.038;20.322;2022-08-19T11:44:04;34.10;97.30
37544;DHT22;23385;52.038;20.322;2022-08-19T11:46:30;34.20;96.50
37544;DHT22;23385;52.038;20.322;2022-08-19T11:48:58;34.00;96.40
37544;DHT22;23385;52.038;20.322;2022-08-19T11:51:28;33.90;97.10
37544;DHT22;23385;52.038;20.322;2022-08-19T11:53:55;34.20;99.90
37544;DHT22;23385;52.038;20.322;2022-08-19T11:56:23;34.40;95.60
37544;DHT22;23385;52.038;20.322;2022-08-19T11:58:49;34.50;96.30
37544;DHT22;23385;52.038;20.322;2022-08-19T12:01:17;34.70;97.70
37544;DHT22;23385;52.038;20.322;2022-08-19T12:03:44;34.50;93.50
37544;DHT22;23385;52.038;20.322;2022-08-19T12:06:13;34.30;94.70
37544;DHT22;23385;52.038;20.322;2022-08-19T12:08:43;34.40;95.70
37544;DHT22;23385;52.038;20.322;2022-08-19T12:11:11;34.40;93.60
37544;DHT22;23385;52.038;20.322;2022-08-19T12:13:38;34.20;94.00
37544;DHT22;23385;52.038;20.322;2022-08-19T12:16:12;34.20;95.20
37544;DHT22;23385;52.038;20.322;2022-08-19T12:18:39;34.30;94.70
37544;DHT22;23385;52.038;20.322;2022-08-19T12:21:07;34.20;94.70
37544;DHT22;23385;52.038;20.322;2022-08-19T12:23:35;34.30;95.80
37544;DHT22;23385;52.038;20.322;2022-08-19T12:26:03;34.50;94.20
37544;DHT22;23385;52.038;20.322;2022-08-19T12:28:28;34.40;94.30
37544;DHT22;23385;52.038;20.322;2022-08-19T12:30:56;34.60;93.10
37544;DHT22;23385;52.038;20.322;2022-08-19T12:33:22;34.60;92.90
37544;DHT22;23385;52.038;20.322;2022-08-19T12:35:51;34.90;94.40
37544;DHT22;23385;52.038;20.322;2022-08-19T12:38:17;35.00;93.30
37544;DHT22;23385;52.038;20.322;2022-08-19T12:40:46;35.00;92.80
37544;DHT22;23385;52.038;20.322;2022-08-19T12:43:12;35.10;91.70
37544;DHT22;23385;52.038;20.322;2022-08-19T12:45:39;35.10;90.90
37544;DHT22;23385;52.038;20.322;2022-08-19T12:48:05;34.70;90.90
37544;DHT22;23385;52.038;20.322;2022-08-19T12:50:31;34.60;90.10
37544;DHT22;23385;52.038;20.322;2022-08-19T12:52:57;34.60;92.20
37544;DHT22;23385;52.038;20.322;2022-08-19T12:55:23;34.50;93.00
37544;DHT22;23385;52.038;20.322;2022-08-19T12:57:50;34.70;92.00
37544;DHT22;23385;52.038;20.322;2022-08-19T13:00:19;35.00;92.50
37544;DHT22;23385;52.038;20.322;2022-08-19T13:02:48;35.00;92.30
37544;DHT22;23385;52.038;20.322;2022-08-19T13:05:18;35.10;91.50
37544;DHT22;23385;52.038;20.322;2022-08-19T13:07:46;35.10;91.50
37544;DHT22;23385;52.038;20.322;2022-08-19T13:10:15;35.00;91.10
37544;DHT22;23385;52.038;20.322;2022-08-19T13:12:42;34.90;92.80
37544;DHT22;23385;52.038;20.322;2022-08-19T13:15:09;34.90;90.10
37544;DHT22;23385;52.038;20.322;2022-08-19T13:17:36;34.80;91.10
37544;DHT22;23385;52.038;20.322;2022-08-19T13:20:03;35.00;91.40
37544;DHT22;23385;52.038;20.322;2022-08-19T13:22:30;35.10;91.60
37544;DHT22;23385;52.038;20.322;2022-08-19T13:24:57;35.10;92.40
37544;DHT22;23385;52.038;20.322;2022-08-19T13:27:22;35.20;92.70
37544;DHT22;23385;52.038;20.322;2022-08-19T13:29:48;35.30;93.00
37544;DHT22;23385;52.038;20.322;2022-08-19T13:32:32;35.30;91.80
37544;DHT22;23385;52.038;20.322;2022-08-19T13:35:16;35.50;92.70
37544;DHT22;23385;52.038;20.322;2022-08-19T13:37:43;35.60;92.20
37544;DHT22;23385;52.038;20.322;2022-08-19T13:40:15;35.40;91.30
37544;DHT22;23385;52.038;20.322;2022-08-19T13:42:45;35.30;90.80
37544;DHT22;23385;52.038;20.322;2022-08-19T13:45:14;35.30;90.40
37544;DHT22;23385;52.038;20.322;2022-08-19T13:47:41;35.40;91.40
37544;DHT22;23385;52.038;20.322;2022-08-19T13:50:15;35.50;88.30
37544;DHT22;23385;52.038;20.322;2022-08-19T13:52:41;35.50;89.40
37544;DHT22;23385;52.038;20.322;2022-08-19T13:55:09;35.50;92.30
37544;DHT22;23385;52.038;20.322;2022-08-19T13:57:35;35.30;90.10
37544;DHT22;23385;52.038;20.322;2022-08-19T14:00:15;35.20;90.50
37544;DHT22;23385;52.038;20.322;2022-08-19T14:02:44;35.20;90.00
37544;DHT22;23385;52.038;20.322;2022-08-19T14:05:12;35.00;88.40
37544;DHT22;23385;52.038;20.322;2022-08-19T14:07:38;34.80;87.70
37544;DHT22;23385;52.038;20.322;2022-08-19T14:10:06;34.80;90.00
37544;DHT22;23385;52.038;20.322;2022-08-19T14:12:32;34.80;88.80
37544;DHT22;23385;52.038;20.322;2022-08-19T14:14:59;34.70;89.20
37544;DHT22;23385;52.038;20.322;2022-08-19T14:17:25;34.60;89.60
37544;DHT22;23385;52.038;20.322;2022-08-19T14:20:03;34.60;90.60
37544;DHT22;23385;52.038;20.322;2022-08-19T14:22:34;34.60;88.20
37544;DHT22;23385;52.038;20.322;2022-08-19T14:25:00;34.50;90.60
37544;DHT22;23385;52.038;20.322;2022-08-19T14:27:26;34.50;90.90
37544;DHT22;23385;52.038;20.322;2022-08-19T14:29:52;34.50;88.70
37544;DHT22;23385;52.038;20.322;2022-08-19T14:32:18;34.50;91.40
37544;DHT22;23385;52.038;20.322;2022-08-19T14:34:44;34.40;89.80
37544;DHT22;23385;52.038;20.322;2022-08-19T14:37:14;34.40;89.90
37544;DHT22;23385;52.038;20.322;2022-08-19T14:39:43;34.30;89.40
37544;DHT22;23385;52.038;20.322;2022-08-19T14:42:11;34.30;90.30
37544;DHT22;23385;52.038;20.322;2022-08-19T14:44:37;34.30;88.20
37544;DHT22;23385;52.038;20.322;2022-08-19T14:47:03;34.40;91.80
37544;DHT22;23385;52.038;20.322;2022-08-19T14:49:29;34.40;90.80
37544;DHT22;23385;52.038;20.322;2022-08-19T14:51:55;34.40;91.00
37544;DHT22;23385;52.038;20.322;2022-08-19T14:54:22;34.40;91.20
37544;DHT22;23385;52.038;20.322;2022-08-19T14:56:49;34.50;92.40
37544;DHT22;23385;52.038;20.322;2022-08-19T14:59:16;34.40;92.00
37544;DHT22;23385;52.038;20.322;2022-08-19T15:01:42;34.30;90.60
37544;DHT22;23385;52.038;20.322;2022-08-19T15:04:08;34.30;91.20
37544;DHT22;23385;52.038;20.322;2022-08-19T15:06:34;34.30;91.90
37544;DHT22;23385;52.038;20.322;2022-08-19T15:09:02;34.20;91.00
37544;DHT22;23385;52.038;20.322;2022-08-19T15:11:29;34.00;91.20
37544;DHT22;23385;52.038;20.322;2022-08-19T15:13:56;34.00;91.90
37544;DHT22;23385;52.038;20.322;2022-08-19T15:16:22;34.00;92.80
37544;DHT22;23385;52.038;20.322;2022-08-19T15:18:54;34.00;92.90
37544;DHT22;23385;52.038;20.322;2022-08-19T15:21:21;34.00;94.10
37544;DHT22;23385;52.038;20.322;2022-08-19T15:23:49;34.00;95.20
37544;DHT22;23385;52.038;20.322;2022-08-19T15:26:17;34.00;94.90
37544;DHT22;23385;52.038;20.322;2022-08-19T15:28:44;33.90;93.80
37544;DHT22;23385;52.038;20.322;2022-08-19T15:31:11;33.80;93.80
37544;DHT22;23385;52.038;20.322;2022-08-19T15:33:39;33.80;92.70
37544;DHT22;23385;52.038;20.322;2022-08-19T15:36:07;33.70;93.80
37544;DHT22;23385;52.038;20.322;2022-08-19T15:38:34;33.60;95.40
37544;DHT22;23385;52.038;20.322;2022-08-19T15:41:01;33.60;95.90
37544;DHT22;23385;52.038;20.322;2022-08-19T15:43:47;33.60;95.80
37544;DHT22;23385;52.038;20.322;2022-08-19T15:46:22;33.30;95.60
37544;DHT22;23385;52.038;20.322;2022-08-19T15:48:50;33.10;95.90
37544;DHT22;23385;52.038;20.322;2022-08-19T15:51:17;33.00;96.00
37544;DHT22;23385;52.038;20.322;2022-08-19T15:53:43;32.90;96.60
37544;DHT22;23385;52.038;20.322;2022-08-19T15:56:09;32.80;99.50
37544;DHT22;23385;52.038;20.322;2022-08-19T15:58:35;32.80;97.80
37544;DHT22;23385;52.038;20.322;2022-08-19T16:01:20;32.70;98.80
37544;DHT22;23385;52.038;20.322;2022-08-19T16:04:04;32.60;99.90
37544;DHT22;23385;52.038;20.322;2022-08-19T16:06:51;32.60;99.90
37544;DHT22;23385;52.038;20.322;2022-08-19T16:09:19;32.50;99.90
37544;DHT22;23385;52.038;20.322;2022-08-19T16:11:46;32.40;99.90
37544;DHT22;23385;52.038;20.322;2022-08-19T16:14:17;32.30;99.90
37544;DHT22;23385;52.038;20.322;2022-08-19T16:16:44;32.40;99.90
37544;DHT22;23385;52.038;20.322;2022-08-19T16:19:16;32.40;99.90
37544;DHT22;23385;52.038;20.322;2022-08-19T16:21:45;32.20;99.90
37544;DHT22;23385;52.038;20.322;2022-08-19T16:24:13;32.00;99.90
37544;DHT22;23385;52.038;20.322;2022-08-19T16:26:41;31.90;99.90
37544;DHT22;23385;52.038;20.322;2022-08-19T16:29:07;31.90;99.90
37544;DHT22;23385;52.038;20.322;2022-08-19T16:31:33;31.70;99.90
37544;DHT22;23385;52.038;20.322;2022-08-19T16:33:59;31.60;99.90
37544;DHT22;23385;52.038;20.322;2022-08-19T16:36:25;31.60;99.90
37544;DHT22;23385;52.038;20.322;2022-08-19T16:38:53;31.50;99.90
37544;DHT22;23385;52.038;20.322;2022-08-19T16:41:20;31.30;99.90
37544;DHT22;23385;52.038;20.322;2022-08-19T16:43:47;31.30;99.90
37544;DHT22;23385;52.038;20.322;2022-08-19T16:46:19;31.30;99.90
37544;DHT22;23385;52.038;20.322;2022-08-19T16:48:46;31.10;99.90
37544;DHT22;23385;52.038;20.322;2022-08-19T16:51:12;31.00;99.90
37544;DHT22;23385;52.038;20.322;2022-08-19T16:53:39;30.90;99.90
37544;DHT22;23385;52.038;20.322;2022-08-19T16:56:06;30.80;99.90